Time;durP1;ratioP1;P1;durP2;ratioP2;P2;SDS_P1;SDS_P2;PMS_P1;PMS_P2;Temp;Humidity;BMP_temperature;BMP_pressure;BME280_temperature;BME280_humidity;BME280_pressure;Samples;Min_cycle;Max_cycle;Signal;HPM_P1;HPM_P2
2022/05/08 00:02:23;;;;;;;25.77;4.93;;;10.00;99.90;;;;;;5038531;28;20049;-49
2022/05/08 00:04:52;;;;;;;24.90;5.32;;;10.00;99.90;;;;;;5046992;28;20041;-51
2022/05/08 00:07:19;;;;;;;20.67;5.38;;;9.90;99.90;;;;;;5046178;28;20090;-49
2022/05/08 00:09:45;;;;;;;31.65;5.90;;;9.90;99.90;;;;;;5032331;28;20041;-49
2022/05/08 00:12:11;;;;;;;20.58;5.45;;;10.00;99.90;;;;;;5050760;28;20076;-48
2022/05/08 00:14:43;;;;;;;23.85;5.32;;;9.90;99.90;;;;;;5047412;28;20032;-49
2022/05/08 00:17:13;;;;;;;23.80;5.15;;;9.80;99.90;;;;;;5049055;28;20044;-48
2022/05/08 00:19:43;;;;;;;29.40;5.35;;;9.80;99.90;;;;;;5045301;28;20548;-49
2022/05/08 00:22:11;;;;;;;24.45;5.22;;;9.70;99.90;;;;;;5049364;28;20507;-50
2022/05/08 00:24:36;;;;;;;21.02;4.85;;;9.60;99.90;;;;;;5053531;28;20044;-48
2022/05/08 00:27:02;;;;;;;18.52;4.88;;;9.60;99.90;;;;;;5045730;28;20438;-49
2022/05/08 00:29:28;;;;;;;24.08;5.55;;;9.60;99.90;;;;;;5046904;28;20398;-48
2022/05/08 00:31:53;;;;;;;26.13;6.70;;;9.60;99.90;;;;;;5053846;28;20128;-49
2022/05/08 00:34:19;;;;;;;21.67;4.88;;;9.50;99.90;;;;;;5047665;28;20129;-50
2022/05/08 00:36:44;;;;;;;30.40;5.93;;;9.40;99.90;;;;;;5040695;28;20040;-48
2022/05/08 00:39:10;;;;;;;31.83;5.68;;;9.40;99.90;;;;;;5053599;28;20041;-48
2022/05/08 00:41:35;;;;;;;25.30;5.82;;;9.30;99.90;;;;;;5045365;28;20162;-47
2022/05/08 00:44:02;;;;;;;27.65;5.63;;;9.30;99.90;;;;;;5032568;28;20481;-49
2022/05/08 00:46:29;;;;;;;26.33;6.40;;;9.20;99.90;;;;;;5051934;28;20029;-49
2022/05/08 00:48:55;;;;;;;26.92;5.50;;;9.20;99.90;;;;;;5053350;28;20036;-48
2022/05/08 00:51:20;;;;;;;17.60;4.75;;;9.10;99.90;;;;;;5048577;28;20581;-49
2022/05/08 00:53:50;;;;;;;27.65;6.10;;;9.10;99.90;;;;;;5045120;28;20037;-49
2022/05/08 00:56:16;;;;;;;22.30;5.28;;;9.00;99.90;;;;;;5053652;28;20045;-52
2022/05/08 00:58:44;;;;;;;22.20;5.25;;;9.00;99.90;;;;;;5026341;28;20045;-48
2022/05/08 01:01:10;;;;;;;26.73;5.78;;;8.90;99.90;;;;;;5045493;28;20052;-49
2022/05/08 01:03:36;;;;;;;22.85;4.75;;;8.90;99.90;;;;;;5050595;28;20108;-47
2022/05/08 01:06:07;;;;;;;16.67;4.70;;;8.90;99.90;;;;;;5048766;28;20048;-49
2022/05/08 01:08:36;;;;;;;29.13;5.70;;;8.80;99.90;;;;;;5051751;28;20519;-47
2022/05/08 01:11:03;;;;;;;26.98;5.47;;;8.70;99.90;;;;;;5053489;28;20052;-48
2022/05/08 01:13:28;;;;;;;26.08;5.78;;;8.80;99.90;;;;;;5051316;28;20041;-47
2022/05/08 01:15:55;;;;;;;23.98;5.53;;;8.80;99.90;;;;;;5049070;28;20045;-48
2022/05/08 01:18:21;;;;;;;30.10;5.82;;;8.70;99.90;;;;;;5052682;28;20044;-48
2022/05/08 01:20:47;;;;;;;23.83;5.50;;;8.70;99.90;;;;;;5053340;28;20029;-48
2022/05/08 01:23:15;;;;;;;22.95;5.85;;;8.70;99.90;;;;;;5045832;28;20316;-49
2022/05/08 01:25:49;;;;;;;22.98;5.53;;;8.60;99.90;;;;;;5053031;28;20079;-48
2022/05/08 01:28:16;;;;;;;26.90;5.57;;;8.70;99.90;;;;;;5050683;28;20507;-48
2022/05/08 01:30:42;;;;;;;22.25;5.30;;;8.50;99.90;;;;;;5050713;28;20060;-48
2022/05/08 01:33:08;;;;;;;25.63;5.40;;;8.50;99.90;;;;;;5043938;28;20045;-48
2022/05/08 01:35:35;;;;;;;20.60;5.68;;;8.50;99.90;;;;;;5048310;28;20037;-48
2022/05/08 01:38:01;;;;;;;22.55;5.68;;;8.50;99.90;;;;;;5050737;28;20379;-47
2022/05/08 01:40:26;;;;;;;24.90;5.35;;;8.50;99.90;;;;;;5052861;28;20037;-47
2022/05/08 01:42:52;;;;;;;22.38;5.25;;;8.40;99.90;;;;;;5049964;28;20048;-47
2022/05/08 01:45:18;;;;;;;20.27;4.80;;;8.40;99.90;;;;;;5046248;28;20120;-47
2022/05/08 01:50:28;;;;;;;25.35;6.10;;;8.20;99.90;;;;;;5046482;28;20076;-48
2022/05/08 01:52:53;;;;;;;23.85;5.00;;;8.10;99.90;;;;;;5042856;28;20500;-48
2022/05/08 01:55:19;;;;;;;25.60;5.97;;;8.00;99.90;;;;;;5050477;28;20033;-48
2022/05/08 01:57:44;;;;;;;22.15;5.72;;;8.00;99.90;;;;;;5052132;28;20040;-48
2022/05/08 02:00:10;;;;;;;21.90;5.07;;;8.00;99.90;;;;;;5052105;28;20037;-50
2022/05/08 02:02:36;;;;;;;25.13;5.25;;;7.90;99.90;;;;;;5049656;28;20512;-49
2022/05/08 02:05:03;;;;;;;22.63;5.10;;;7.90;99.90;;;;;;5044333;28;20091;-50
2022/05/08 02:07:29;;;;;;;19.95;4.78;;;7.80;99.90;;;;;;5049110;28;20037;-49
2022/05/08 02:09:58;;;;;;;18.90;4.82;;;7.80;99.90;;;;;;5044715;28;20041;-49
2022/05/08 02:12:23;;;;;;;18.05;4.82;;;7.80;99.90;;;;;;5041942;28;20080;-48
2022/05/08 02:14:49;;;;;;;22.95;5.45;;;7.70;99.90;;;;;;5044980;28;20057;-48
2022/05/08 02:17:17;;;;;;;20.55;4.78;;;7.70;99.90;;;;;;5049122;28;20463;-47
2022/05/08 02:19:43;;;;;;;20.83;5.22;;;7.60;99.90;;;;;;5046192;28;20388;-49
2022/05/08 02:22:08;;;;;;;26.02;5.60;;;7.60;99.90;;;;;;5049511;28;20048;-49
2022/05/08 02:24:34;;;;;;;20.50;5.38;;;7.60;99.90;;;;;;5043203;28;20517;-48
2022/05/08 02:26:59;;;;;;;19.83;5.20;;;7.50;99.90;;;;;;5051553;28;20514;-49
2022/05/08 02:29:25;;;;;;;20.25;4.78;;;7.50;99.90;;;;;;5051367;28;20043;-49
2022/05/08 02:31:50;;;;;;;21.27;5.20;;;7.40;99.90;;;;;;5051922;28;20041;-49
2022/05/08 02:34:16;;;;;;;17.25;4.90;;;7.40;99.90;;;;;;5044134;28;20028;-49
2022/05/08 02:36:41;;;;;;;22.88;5.22;;;7.30;99.90;;;;;;5047686;28;20418;-49
2022/05/08 02:39:07;;;;;;;18.90;4.88;;;7.30;99.90;;;;;;5050425;28;20518;-47
2022/05/08 02:41:32;;;;;;;22.98;5.00;;;7.30;99.90;;;;;;5049522;28;20048;-48
2022/05/08 02:43:58;;;;;;;16.67;4.72;;;7.20;99.90;;;;;;5046594;28;20550;-48
2022/05/08 02:46:24;;;;;;;20.83;5.60;;;7.20;99.90;;;;;;5051335;28;20040;-49
2022/05/08 02:48:49;;;;;;;24.15;5.22;;;7.20;99.90;;;;;;5033371;28;20049;-48
2022/05/08 02:51:15;;;;;;;20.60;5.13;;;7.20;99.90;;;;;;5048901;28;20067;-48
2022/05/08 02:53:40;;;;;;;22.60;5.13;;;7.20;99.90;;;;;;5033950;28;20498;-49
2022/05/08 02:58:50;;;;;;;19.98;5.10;;;7.10;99.90;;;;;;5056888;28;20133;-49
2022/05/08 03:01:15;;;;;;;13.95;4.28;;;7.00;99.90;;;;;;5048603;28;20478;-48
2022/05/08 03:03:41;;;;;;;18.60;4.93;;;7.00;99.90;;;;;;5039012;28;20093;-48
2022/05/08 03:06:07;;;;;;;19.48;5.55;;;6.90;99.90;;;;;;5048680;28;20127;-48
2022/05/08 03:08:32;;;;;;;16.40;4.78;;;6.90;99.90;;;;;;5047143;28;20059;-50
2022/05/08 03:13:43;;;;;;;18.20;5.93;;;6.70;99.90;;;;;;5048099;28;20059;-48
2022/05/08 03:16:10;;;;;;;21.05;6.75;;;6.70;99.90;;;;;;5044573;28;20124;-48
2022/05/08 03:18:38;;;;;;;20.00;4.88;;;6.60;99.90;;;;;;5041737;28;20494;-48
2022/05/08 03:21:07;;;;;;;17.88;4.90;;;6.50;99.90;;;;;;5049614;28;20045;-48
2022/05/08 03:23:34;;;;;;;23.20;5.13;;;6.50;99.90;;;;;;5045952;28;20495;-48
2022/05/08 03:26:00;;;;;;;21.08;5.18;;;6.40;99.90;;;;;;5049808;28;20139;-48
2022/05/08 03:28:25;;;;;;;18.48;5.75;;;6.40;99.90;;;;;;5051208;28;20033;-49
2022/05/08 03:30:51;;;;;;;16.75;4.40;;;6.40;99.90;;;;;;5049213;28;20033;-50
2022/05/08 03:33:17;;;;;;;18.63;4.95;;;6.40;99.90;;;;;;5041779;28;20406;-49
2022/05/08 03:35:43;;;;;;;19.30;4.65;;;6.30;99.90;;;;;;5050999;28;20537;-48
2022/05/08 03:38:08;;;;;;;12.63;4.57;;;6.30;99.90;;;;;;5038718;28;20576;-48
2022/05/08 03:40:35;;;;;;;15.80;4.55;;;6.20;99.90;;;;;;5033454;28;20033;-48
2022/05/08 03:43:01;;;;;;;17.88;4.55;;;6.20;99.90;;;;;;5051485;28;20041;-48
2022/05/08 03:45:28;;;;;;;15.90;4.47;;;6.20;99.90;;;;;;5051198;28;20084;-49
2022/05/08 03:47:54;;;;;;;18.13;5.00;;;6.10;99.90;;;;;;5043952;28;20045;-48
2022/05/08 03:50:21;;;;;;;15.93;5.22;;;6.10;99.90;;;;;;5050583;28;20174;-48
2022/05/08 03:52:47;;;;;;;15.90;5.00;;;6.10;99.90;;;;;;5046757;28;20064;-49
2022/05/08 03:55:15;;;;;;;15.45;4.90;;;6.10;99.90;;;;;;5051013;28;20441;-52
2022/05/08 03:57:45;;;;;;;14.55;4.38;;;6.00;99.90;;;;;;5052742;28;20040;-49
2022/05/08 04:00:11;;;;;;;19.15;4.78;;;6.00;99.90;;;;;;5054868;28;20067;-50
2022/05/08 04:02:38;;;;;;;24.92;5.60;;;5.90;99.90;;;;;;5055335;28;20045;-52
2022/05/08 04:05:04;;;;;;;16.58;4.50;;;5.90;99.90;;;;;;5051056;28;20048;-49
2022/05/08 04:07:30;;;;;;;13.80;3.97;;;5.80;99.90;;;;;;5043987;28;20057;-48
2022/05/08 04:09:55;;;;;;;17.05;4.60;;;5.80;99.90;;;;;;5051257;28;20134;-50
2022/05/08 04:12:21;;;;;;;20.70;4.75;;;5.70;99.90;;;;;;5053356;28;20091;-51
2022/05/08 04:14:46;;;;;;;15.00;4.85;;;5.70;99.90;;;;;;5049847;28;20040;-51
2022/05/08 04:17:12;;;;;;;21.65;5.15;;;5.60;99.90;;;;;;5052479;28;20033;-48
2022/05/08 04:19:37;;;;;;;14.98;4.40;;;5.70;99.90;;;;;;5054178;28;20033;-48
2022/05/08 04:24:48;;;;;;;20.98;5.38;;;5.70;99.90;;;;;;5053432;28;20056;-51
2022/05/08 04:27:14;;;;;;;26.73;6.50;;;5.70;99.90;;;;;;5052152;28;20044;-48
2022/05/08 04:29:39;;;;;;;20.95;5.88;;;5.80;99.90;;;;;;5048155;28;20491;-48
2022/05/08 04:32:05;;;;;;;26.52;5.65;;;5.90;99.90;;;;;;5053959;28;20130;-49
2022/05/08 04:34:30;;;;;;;20.52;5.65;;;5.90;99.90;;;;;;5054463;28;20072;-48
2022/05/08 04:36:56;;;;;;;28.30;6.57;;;5.90;99.90;;;;;;5048917;28;20037;-49
2022/05/08 04:39:21;;;;;;;24.35;6.28;;;6.00;99.90;;;;;;5052010;28;20029;-52
2022/05/08 04:41:47;;;;;;;20.08;6.63;;;6.00;99.90;;;;;;5051646;28;20036;-49
2022/05/08 04:44:12;;;;;;;17.85;6.25;;;6.10;99.90;;;;;;5053255;28;20068;-52
2022/05/08 04:46:38;;;;;;;22.25;5.55;;;6.10;99.90;;;;;;5056847;28;20041;-49
2022/05/08 04:49:04;;;;;;;21.35;5.07;;;6.20;99.90;;;;;;5060803;28;20041;-50
2022/05/08 04:51:30;;;;;;;21.20;5.60;;;6.20;99.90;;;;;;5053945;28;20104;-51
2022/05/08 04:53:55;;;;;;;27.20;7.03;;;6.20;99.90;;;;;;5035745;28;20045;-48
2022/05/08 04:56:21;;;;;;;20.48;5.47;;;6.20;99.90;;;;;;5049984;28;20052;-51
2022/05/08 04:58:47;;;;;;;20.25;5.03;;;6.30;99.90;;;;;;5080074;22;20108;-53
2022/05/08 05:01:13;;;;;;;20.00;5.90;;;6.30;99.90;;;;;;5082532;28;20055;-52
2022/05/08 05:03:39;;;;;;;23.02;5.90;;;6.30;99.90;;;;;;5072138;28;20554;-53
2022/05/08 05:06:04;;;;;;;21.05;5.38;;;6.40;99.90;;;;;;5072369;28;20044;-52
2022/05/08 05:08:30;;;;;;;21.67;6.22;;;6.40;99.90;;;;;;5071340;28;20500;-52
2022/05/08 05:10:55;;;;;;;16.67;5.25;;;6.50;99.90;;;;;;5070414;28;20069;-52
2022/05/08 05:13:21;;;;;;;20.88;5.78;;;6.50;99.90;;;;;;5070143;28;20035;-52
2022/05/08 05:15:46;;;;;;;23.17;6.13;;;6.50;99.90;;;;;;5072403;28;20047;-51
2022/05/08 05:18:12;;;;;;;24.30;6.68;;;6.60;99.90;;;;;;5071186;28;20444;-53
2022/05/08 05:20:37;;;;;;;22.52;5.60;;;6.60;99.90;;;;;;5063129;28;20032;-53
2022/05/08 05:23:03;;;;;;;16.08;5.70;;;6.70;99.90;;;;;;5072888;28;20040;-53
2022/05/08 05:25:29;;;;;;;20.83;6.13;;;6.80;99.90;;;;;;5070854;28;20044;-52
2022/05/08 05:27:55;;;;;;;25.15;5.60;;;6.90;99.90;;;;;;5072727;28;20401;-53
2022/05/08 05:30:21;;;;;;;17.80;5.50;;;7.00;99.90;;;;;;5072645;28;20051;-53
2022/05/08 05:32:47;;;;;;;17.00;4.78;;;7.10;99.90;;;;;;5072632;28;20048;-53
2022/05/08 05:35:13;;;;;;;23.67;6.28;;;7.20;99.90;;;;;;5073061;28;20041;-52
2022/05/08 05:37:39;;;;;;;20.00;5.63;;;7.40;99.90;;;;;;5072759;28;20037;-53
2022/05/08 05:40:06;;;;;;;21.58;5.53;;;7.50;99.90;;;;;;5071131;28;20040;-53
2022/05/08 05:42:32;;;;;;;19.17;4.90;;;7.50;99.90;;;;;;5072471;28;20040;-53
2022/05/08 05:44:58;;;;;;;23.65;5.70;;;7.70;99.90;;;;;;5073163;28;20462;-53
2022/05/08 05:50:09;;;;;;;20.30;5.30;;;8.50;99.90;;;;;;5072585;28;20051;-50
2022/05/08 05:52:35;;;;;;;17.50;5.10;;;8.80;99.90;;;;;;5072330;28;20040;-52
2022/05/08 05:55:03;;;;;;;15.15;4.25;;;9.00;99.90;;;;;;5054318;28;20045;-53
2022/05/08 05:57:28;;;;;;;15.88;4.60;;;9.10;99.90;;;;;;5052189;28;20067;-53
2022/05/08 05:59:54;;;;;;;14.07;4.80;;;9.00;99.90;;;;;;5071337;28;20045;-53
2022/05/08 06:02:19;;;;;;;14.95;4.93;;;9.00;99.90;;;;;;5072482;28;20048;-50
2022/05/08 06:04:45;;;;;;;14.88;4.65;;;8.90;99.90;;;;;;5072287;28;20167;-51
2022/05/08 06:07:10;;;;;;;21.52;4.63;;;9.00;99.90;;;;;;5062342;28;20044;-51
2022/05/08 06:09:36;;;;;;;13.23;3.85;;;9.40;99.90;;;;;;5052380;28;20053;-51
2022/05/08 06:12:01;;;;;;;16.50;3.83;;;9.80;99.90;;;;;;5052039;28;20044;-51
2022/05/08 06:14:27;;;;;;;13.38;3.83;;;10.10;99.90;;;;;;5070264;28;20059;-51
2022/05/08 06:16:54;;;;;;;9.68;3.95;;;10.10;99.90;;;;;;5072893;28;20036;-51
2022/05/08 06:19:19;;;;;;;14.18;4.07;;;10.00;99.90;;;;;;5071294;28;20517;-51
2022/05/08 06:21:47;;;;;;;14.95;3.92;;;9.90;99.90;;;;;;5066698;28;20036;-51
2022/05/08 06:24:12;;;;;;;10.60;3.40;;;9.80;99.90;;;;;;5071156;28;20545;-51
2022/05/08 06:26:38;;;;;;;12.15;3.72;;;9.70;99.90;;;;;;5070517;28;20169;-49
2022/05/08 06:29:03;;;;;;;18.08;4.15;;;9.70;99.90;;;;;;5068498;28;20119;-51
2022/05/08 06:31:29;;;;;;;10.77;3.47;;;9.70;99.90;;;;;;5071865;28;20037;-50
2022/05/08 06:33:55;;;;;;;12.30;3.92;;;9.70;99.90;;;;;;5080431;28;20165;-51
2022/05/08 06:36:21;;;;;;;13.40;3.67;;;9.50;99.90;;;;;;5073568;28;20553;-49
2022/05/08 06:38:46;;;;;;;16.58;3.40;;;9.80;99.90;;;;;;5072771;28;20432;-48
2022/05/08 06:41:12;;;;;;;15.45;3.63;;;9.90;99.90;;;;;;5091103;28;20038;-49
2022/05/08 06:43:40;;;;;;;12.20;2.97;;;10.10;99.90;;;;;;5074562;28;20040;-47
2022/05/08 06:46:08;;;;;;;13.40;2.90;;;10.20;99.90;;;;;;5069712;28;20448;-47
2022/05/08 06:48:35;;;;;;;12.05;3.53;;;10.20;99.90;;;;;;5070812;28;20127;-50
2022/05/08 06:51:01;;;;;;;12.15;3.17;;;10.30;99.90;;;;;;5069842;28;20050;-48
2022/05/08 06:53:26;;;;;;;11.27;2.78;;;10.30;99.90;;;;;;5070558;28;20404;-48
2022/05/08 06:55:53;;;;;;;14.85;2.95;;;10.40;99.90;;;;;;5071085;28;20040;-48
2022/05/08 06:58:20;;;;;;;13.60;2.70;;;10.40;99.90;;;;;;5071331;28;20037;-47
2022/05/08 07:03:31;;;;;;;9.23;2.63;;;10.50;99.90;;;;;;5063648;28;20059;-48
2022/05/08 07:05:57;;;;;;;11.73;2.35;;;10.60;99.90;;;;;;5071170;28;20044;-49
2022/05/08 07:08:23;;;;;;;12.43;2.30;;;10.60;99.90;;;;;;5068306;28;20098;-48
2022/05/08 07:10:49;;;;;;;13.30;2.70;;;10.60;99.90;;;;;;5071282;28;20040;-48
2022/05/08 07:13:15;;;;;;;9.05;2.50;;;10.60;99.90;;;;;;5070966;28;20402;-48
2022/05/08 07:15:41;;;;;;;9.00;2.50;;;10.60;99.90;;;;;;5068993;28;20058;-48
2022/05/08 07:18:06;;;;;;;8.95;2.42;;;10.70;99.90;;;;;;5070474;28;20040;-47
2022/05/08 07:20:32;;;;;;;12.75;2.65;;;10.80;99.90;;;;;;5072289;28;20028;-47
2022/05/08 07:22:58;;;;;;;7.28;2.30;;;10.90;99.90;;;;;;5070595;28;20044;-47
2022/05/08 07:25:23;;;;;;;11.25;2.97;;;10.90;99.90;;;;;;5071364;28;20036;-47
2022/05/08 07:27:49;;;;;;;11.80;2.63;;;11.00;99.90;;;;;;5071082;28;20410;-48
2022/05/08 07:30:14;;;;;;;9.50;2.10;;;10.90;99.90;;;;;;5069010;28;20102;-49
2022/05/08 07:32:40;;;;;;;8.80;2.08;;;10.90;99.90;;;;;;5070788;28;20033;-47
2022/05/08 07:37:50;;;;;;;10.52;2.10;;;10.90;99.90;;;;;;5071244;28;20048;-50
2022/05/08 07:40:16;;;;;;;10.77;2.10;;;11.00;99.90;;;;;;5074062;28;20389;-50
2022/05/08 07:42:41;;;;;;;8.93;2.03;;;11.00;99.90;;;;;;5075239;28;20044;-50
2022/05/08 07:45:07;;;;;;;12.30;2.85;;;10.90;99.90;;;;;;5072620;28;20125;-50
2022/05/08 07:47:32;;;;;;;5.65;2.28;;;11.00;99.90;;;;;;5073383;28;20564;-48
2022/05/08 07:49:58;;;;;;;10.25;2.38;;;11.00;99.90;;;;;;5072588;28;20170;-48
2022/05/08 07:52:23;;;;;;;11.48;2.65;;;10.90;99.90;;;;;;5074223;28;20541;-50
2022/05/08 07:54:49;;;;;;;12.20;2.63;;;10.90;99.90;;;;;;5074691;28;20051;-47
2022/05/08 07:57:15;;;;;;;9.20;2.20;;;10.90;99.90;;;;;;5074592;28;20037;-48
2022/05/08 07:59:40;;;;;;;9.60;2.20;;;10.90;99.90;;;;;;5070664;28;20044;-47
2022/05/08 08:02:07;;;;;;;7.72;2.15;;;11.10;99.90;;;;;;5067547;28;20032;-48
2022/05/08 08:04:34;;;;;;;10.65;2.33;;;11.20;99.90;;;;;;5073597;28;20789;-48
2022/05/08 08:07:00;;;;;;;8.15;2.30;;;11.30;99.90;;;;;;5072217;28;20052;-49
2022/05/08 08:09:26;;;;;;;10.73;2.30;;;11.40;99.90;;;;;;5073193;28;20437;-48
2022/05/08 08:11:52;;;;;;;8.57;2.35;;;11.60;99.90;;;;;;5066692;28;20081;-49
2022/05/08 08:14:17;;;;;;;8.70;2.15;;;11.70;99.90;;;;;;5071935;28;20536;-48
2022/05/08 08:16:43;;;;;;;8.23;1.92;;;11.70;99.90;;;;;;5067516;28;20072;-48
2022/05/08 08:19:08;;;;;;;15.70;2.88;;;11.90;99.90;;;;;;5072021;28;20036;-48
2022/05/08 08:21:34;;;;;;;11.43;2.10;;;12.00;99.90;;;;;;5073611;28;20052;-47
2022/05/08 08:23:59;;;;;;;10.48;2.38;;;12.10;99.90;;;;;;5073097;28;20048;-48
2022/05/08 08:26:25;;;;;;;9.90;2.42;;;12.20;98.80;;;;;;5070283;28;20041;-48
2022/05/08 08:28:51;;;;;;;14.52;2.30;;;12.30;99.90;;;;;;5072789;28;20124;-48
2022/05/08 08:31:16;;;;;;;9.93;2.20;;;12.40;99.10;;;;;;5072531;28;20051;-48
2022/05/08 08:33:44;;;;;;;8.20;2.50;;;12.40;98.90;;;;;;5073021;28;20024;-47
2022/05/08 08:36:10;;;;;;;6.90;1.83;;;12.50;98.10;;;;;;5074064;28;20123;-47
2022/05/08 08:38:36;;;;;;;10.88;2.20;;;12.40;98.50;;;;;;5072418;28;20123;-48
2022/05/08 08:41:04;;;;;;;13.00;3.03;;;12.40;98.30;;;;;;5068574;28;20135;-48
2022/05/08 08:47:42;;;;;;;8.75;2.28;;;12.40;98.10;;;;;;5066863;28;20055;-48
2022/05/08 08:49:03;;;;;;;11.38;2.38;;;12.50;97.80;;;;;;5068974;28;20149;-47
2022/05/08 08:51:28;;;;;;;11.38;2.38;;;12.40;97.30;;;;;;5073762;28;20068;-47
2022/05/08 08:53:55;;;;;;;10.90;2.15;;;12.30;98.20;;;;;;5071932;28;20072;-48
2022/05/08 08:56:22;;;;;;;9.63;2.40;;;12.40;98.00;;;;;;5073552;28;20036;-47
2022/05/08 08:58:47;;;;;;;11.98;2.88;;;12.50;98.00;;;;;;5068621;28;20037;-49
2022/05/08 09:01:16;;;;;;;12.38;2.30;;;12.60;98.20;;;;;;5073693;28;20036;-48
2022/05/08 09:03:42;;;;;;;6.32;1.80;;;12.80;96.80;;;;;;5068888;28;20040;-53
2022/05/08 09:06:09;;;;;;;7.55;1.80;;;12.70;96.90;;;;;;5068441;28;20417;-53
2022/05/08 09:08:37;;;;;;;9.13;2.15;;;12.50;96.90;;;;;;5076430;28;20036;-52
2022/05/08 09:11:03;;;;;;;8.50;2.35;;;12.50;97.20;;;;;;5077635;28;20040;-53
2022/05/08 09:13:30;;;;;;;8.27;2.20;;;12.70;97.90;;;;;;5064961;28;20025;-53
2022/05/08 09:16:07;;;;;;;9.30;1.95;;;13.00;96.50;;;;;;5078880;28;20154;-54
2022/05/08 09:18:44;;;;;;;14.38;2.10;;;13.10;96.20;;;;;;5074089;28;20045;-51
2022/05/08 09:24:10;;;;;;;10.48;2.08;;;13.40;94.60;;;;;;5062831;28;20118;-52
2022/05/08 09:26:36;;;;;;;13.30;2.22;;;13.40;94.30;;;;;;5082012;28;20051;-48
2022/05/08 09:29:03;;;;;;;9.45;2.38;;;13.40;94.50;;;;;;5077775;28;20398;-51
2022/05/08 09:31:40;;;;;;;10.27;2.13;;;13.20;95.10;;;;;;5077513;28;20408;-50
2022/05/08 09:34:06;;;;;;;10.57;2.40;;;13.30;95.00;;;;;;5076561;28;20072;-51
2022/05/08 09:36:31;;;;;;;10.27;2.40;;;13.40;94.70;;;;;;5075239;28;20083;-51
2022/05/08 09:39:05;;;;;;;9.77;2.20;;;13.70;92.80;;;;;;5066631;28;20033;-51
2022/05/08 09:41:34;;;;;;;9.77;2.80;;;13.70;92.80;;;;;;5078260;28;20085;-48
2022/05/08 09:44:14;;;;;;;6.40;2.17;;;13.80;92.50;;;;;;5075123;28;20050;-48
2022/05/08 09:46:45;;;;;;;11.32;2.35;;;13.80;91.60;;;;;;5067761;28;20039;-49
2022/05/08 09:49:23;;;;;;;12.05;2.10;;;13.80;91.90;;;;;;5077255;28;20032;-48
2022/05/08 09:51:50;;;;;;;10.10;2.30;;;13.90;90.50;;;;;;5080304;28;20043;-49
2022/05/08 09:54:17;;;;;;;8.15;2.20;;;14.00;91.00;;;;;;5076466;28;20044;-49
2022/05/08 09:56:44;;;;;;;8.35;2.35;;;14.10;91.20;;;;;;5072654;28;20029;-48
2022/05/08 09:59:11;;;;;;;9.88;2.70;;;14.20;91.00;;;;;;5074432;28;20449;-48
2022/05/08 10:01:40;;;;;;;8.57;2.35;;;14.20;90.80;;;;;;5084103;28;20089;-48
2022/05/08 10:04:06;;;;;;;8.52;2.58;;;14.10;90.90;;;;;;5081363;28;20140;-48
2022/05/08 10:06:35;;;;;;;8.38;2.50;;;14.00;91.40;;;;;;5074808;28;21460;-48
2022/05/08 10:14:33;;;;;;;10.77;2.42;;;14.10;90.70;;;;;;5074472;28;20547;-48
2022/05/08 10:17:02;;;;;;;8.68;2.42;;;14.20;90.30;;;;;;5083341;28;20461;-49
2022/05/08 10:19:27;;;;;;;12.18;2.47;;;14.30;91.00;;;;;;5084022;28;20039;-50
2022/05/08 10:21:55;;;;;;;11.80;3.10;;;14.40;91.20;;;;;;5072014;28;20028;-48
2022/05/08 10:24:28;;;;;;;10.85;2.40;;;14.50;89.10;;;;;;5070783;28;20036;-48
2022/05/08 10:27:14;;;;;;;13.38;2.78;;;14.60;90.00;;;;;;5079397;28;20039;-48
2022/05/08 10:30:02;;;;;;;8.13;2.72;;;14.60;87.00;;;;;;5069415;28;20062;-49
2022/05/08 10:32:28;;;;;;;9.05;2.50;;;14.70;85.90;;;;;;5068046;28;20028;-49
2022/05/08 10:35:20;;;;;;;9.38;2.50;;;14.60;86.10;;;;;;5066878;28;20406;-48
2022/05/08 10:37:49;;;;;;;8.90;2.05;;;14.80;87.40;;;;;;5067785;28;20041;-47
2022/05/08 10:40:24;;;;;;;10.88;2.80;;;14.80;86.30;;;;;;5059646;28;20024;-49
2022/05/08 10:42:55;;;;;;;13.15;2.80;;;15.00;86.30;;;;;;5070043;28;20498;-47
2022/05/08 10:45:33;;;;;;;11.18;2.85;;;14.90;83.20;;;;;;5070187;28;20045;-49
2022/05/08 10:48:18;;;;;;;13.30;3.35;;;14.90;86.80;;;;;;5075882;28;20048;-47
2022/05/08 10:50:54;;;;;;;17.30;2.95;;;15.10;82.70;;;;;;5065186;28;20032;-48
2022/05/08 10:53:32;;;;;;;14.02;2.92;;;15.10;81.20;;;;;;5067930;28;20041;-48
2022/05/08 10:56:04;;;;;;;9.90;2.38;;;15.10;79.20;;;;;;5073281;28;20043;-48
2022/05/08 10:58:29;;;;;;;10.07;2.42;;;15.20;78.60;;;;;;5063633;28;20170;-58
2022/05/08 11:01:00;;;;;;;10.43;2.65;;;15.20;73.80;;;;;;5063058;28;20549;-51
2022/05/08 11:03:28;;;;;;;6.90;2.10;;;15.30;72.60;;;;;;5074656;28;20040;-52
2022/05/08 11:05:54;;;;;;;10.18;2.20;;;15.20;76.50;;;;;;5083718;22;20128;-48
2022/05/08 11:08:38;;;;;;;7.25;1.90;;;15.30;77.20;;;;;;5051110;28;20119;-47
2022/05/08 11:11:09;;;;;;;8.13;2.28;;;15.40;70.90;;;;;;5050756;28;20041;-48
2022/05/08 11:13:41;;;;;;;5.20;1.83;;;15.50;72.10;;;;;;5050557;28;20063;-47
2022/05/08 11:16:07;;;;;;;11.23;2.00;;;15.60;74.10;;;;;;5050972;28;20330;-48
2022/05/08 11:18:32;;;;;;;14.45;2.78;;;15.50;71.20;;;;;;5052139;28;20083;-48
2022/05/08 11:21:00;;;;;;;7.55;2.10;;;15.50;73.00;;;;;;5037473;28;20519;-49
2022/05/08 11:23:27;;;;;;;9.52;2.30;;;15.50;74.10;;;;;;5048952;28;20040;-48
2022/05/08 11:25:54;;;;;;;10.10;2.63;;;15.50;72.80;;;;;;5039314;28;20045;-49
2022/05/08 11:28:22;;;;;;;10.63;2.15;;;15.60;71.50;;;;;;5039488;28;20045;-49
2022/05/08 11:30:48;;;;;;;6.65;2.10;;;15.70;70.90;;;;;;5041611;28;20033;-50
2022/05/08 11:36:04;;;;;;;8.43;2.13;;;15.90;68.10;;;;;;5042486;28;20382;-48
2022/05/08 11:38:41;;;;;;;10.90;1.90;;;15.80;66.80;;;;;;5037379;28;20109;-48
2022/05/08 11:41:12;;;;;;;7.68;2.10;;;15.90;66.70;;;;;;5036884;28;20442;-49
2022/05/08 11:43:43;;;;;;;7.68;2.20;;;16.00;68.60;;;;;;5037604;28;20051;-51
2022/05/08 11:46:16;;;;;;;7.78;2.17;;;16.10;65.50;;;;;;5037975;28;20108;-49
2022/05/08 11:48:42;;;;;;;8.73;2.25;;;16.10;66.40;;;;;;5046365;28;20094;-49
2022/05/08 11:51:12;;;;;;;8.85;2.95;;;16.20;64.10;;;;;;5039781;28;20049;-49
2022/05/08 11:53:49;;;;;;;9.20;2.40;;;16.20;62.30;;;;;;5050832;28;20445;-49
2022/05/08 11:56:35;;;;;;;7.55;1.90;;;16.30;62.10;;;;;;5045719;28;20041;-48
2022/05/08 11:59:03;;;;;;;9.45;2.42;;;16.20;61.50;;;;;;5050781;28;20040;-49
2022/05/08 12:01:29;;;;;;;9.45;2.10;;;16.30;62.80;;;;;;5045967;28;20141;-48
2022/05/08 12:03:57;;;;;;;7.05;2.22;;;16.40;59.50;;;;;;5039418;28;20120;-49
2022/05/08 12:06:23;;;;;;;7.55;2.20;;;16.30;58.20;;;;;;5048574;28;20047;-49
2022/05/08 12:08:49;;;;;;;6.03;2.10;;;16.30;59.00;;;;;;5049786;28;20037;-49
2022/05/08 12:11:29;;;;;;;9.10;2.53;;;16.30;59.10;;;;;;5050323;28;20033;-49
2022/05/08 12:14:01;;;;;;;7.68;2.22;;;16.20;60.90;;;;;;5050705;28;20541;-48
2022/05/08 12:16:26;;;;;;;10.65;2.70;;;16.30;63.10;;;;;;5049513;28;20108;-52
2022/05/08 12:19:15;;;;;;;9.02;2.58;;;16.40;64.20;;;;;;5048058;28;20569;-49
2022/05/08 12:21:43;;;;;;;11.88;2.65;;;16.50;63.30;;;;;;5066222;28;20434;-49
2022/05/08 12:24:10;;;;;;;9.40;2.45;;;16.60;60.60;;;;;;5046773;28;20052;-48
2022/05/08 12:26:36;;;;;;;10.40;2.50;;;16.70;61.90;;;;;;5062360;28;20087;-48
2022/05/08 12:29:02;;;;;;;7.78;2.42;;;16.70;61.60;;;;;;5061059;28;20040;-51
2022/05/08 12:31:28;;;;;;;9.68;2.47;;;16.80;58.20;;;;;;5067388;28;20050;-48
2022/05/08 12:33:53;;;;;;;11.48;2.40;;;16.70;57.60;;;;;;5068990;28;20045;-48
2022/05/08 12:36:18;;;;;;;7.63;2.17;;;16.60;57.80;;;;;;5050521;28;20036;-49
2022/05/08 12:38:44;;;;;;;13.93;2.90;;;16.60;58.60;;;;;;5039520;28;20038;-48
2022/05/08 12:41:12;;;;;;;9.93;2.33;;;16.70;59.50;;;;;;5041121;28;20063;-48
2022/05/08 12:43:38;;;;;;;11.02;3.15;;;16.70;59.10;;;;;;5052707;28;20043;-48
2022/05/08 12:46:03;;;;;;;10.20;2.28;;;16.70;60.50;;;;;;5045228;28;20128;-48
2022/05/08 12:48:29;;;;;;;18.35;2.63;;;16.80;58.70;;;;;;5047385;28;20041;-48
2022/05/08 12:50:54;;;;;;;12.18;2.70;;;16.90;57.80;;;;;;5047064;28;20041;-48
2022/05/08 12:53:20;;;;;;;12.57;2.50;;;16.80;58.90;;;;;;5048007;28;20073;-48
2022/05/08 12:55:45;;;;;;;11.15;2.60;;;16.90;58.80;;;;;;5053911;28;20116;-51
2022/05/08 13:00:55;;;;;;;9.25;2.33;;;16.90;57.20;;;;;;5051976;28;20123;-48
2022/05/08 13:03:21;;;;;;;11.00;2.70;;;17.00;58.00;;;;;;5053283;28;20498;-50
2022/05/08 13:05:48;;;;;;;11.65;2.40;;;17.00;55.60;;;;;;5059088;28;20119;-50
2022/05/08 13:08:14;;;;;;;9.57;2.20;;;17.00;55.20;;;;;;5056212;28;20478;-48
2022/05/08 13:10:39;;;;;;;9.00;2.40;;;17.00;55.60;;;;;;5048196;28;20135;-51
2022/05/08 13:13:05;;;;;;;9.50;2.15;;;16.90;56.30;;;;;;5052569;28;20098;-49
2022/05/08 13:15:31;;;;;;;12.43;2.22;;;17.00;56.20;;;;;;5053001;28;20033;-48
2022/05/08 13:17:57;;;;;;;9.82;2.40;;;17.00;55.00;;;;;;5053228;28;20521;-50
2022/05/08 13:20:23;;;;;;;9.25;2.38;;;17.00;55.20;;;;;;5053485;28;20037;-48